createdAt,value
2017-10-13T00:01:31.184Z,42.20
2017-10-13T00:03:59.464Z,42.20
2017-10-13T00:06:27.054Z,42.30
2017-10-13T00:08:54.582Z,42.30
2017-10-13T00:11:22.899Z,42.30
2017-10-13T00:13:50.473Z,42.40
2017-10-13T00:16:18.135Z,42.60
2017-10-13T00:18:45.745Z,42.50
2017-10-13T00:21:14.064Z,42.20
2017-10-13T00:23:41.614Z,42.20
2017-10-13T00:26:09.159Z,41.90
2017-10-13T00:28:36.790Z,41.90
2017-10-13T00:31:05.126Z,41.80
2017-10-13T00:33:32.696Z,41.80
2017-10-13T00:36:00.200Z,41.80
2017-10-13T00:38:27.996Z,41.70
2017-10-13T00:40:55.523Z,41.80
2017-10-13T00:43:23.868Z,41.70
2017-10-13T00:45:51.400Z,41.70
2017-10-13T00:48:18.995Z,41.70
2017-10-13T00:50:46.524Z,41.60
2017-10-13T00:53:14.222Z,41.70
2017-10-13T00:55:42.567Z,41.60
2017-10-13T00:58:10.066Z,41.60
2017-10-13T01:00:38.357Z,41.50
2017-10-13T01:03:05.920Z,41.50
2017-10-13T01:05:33.436Z,42.00
2017-10-13T01:08:01.281Z,41.80
2017-10-13T01:10:28.808Z,42.10
2017-10-13T01:12:56.346Z,41.60
2017-10-13T01:15:24.666Z,41.50
2017-10-13T01:17:52.206Z,41.60
2017-10-13T01:20:19.776Z,41.80
2017-10-13T01:22:47.309Z,41.60
2017-10-13T01:25:15.784Z,41.70
2017-10-13T01:27:44.084Z,41.80
2017-10-13T01:30:11.616Z,41.80
2017-10-13T01:32:39.948Z,41.90
2017-10-13T01:35:07.480Z,41.90
2017-10-13T01:37:35.062Z,42.10
2017-10-13T01:40:02.717Z,42.10
2017-10-13T01:42:30.234Z,42.10
2017-10-13T01:44:58.526Z,42.10
2017-10-13T01:47:26.118Z,42.20
2017-10-13T01:49:53.656Z,42.00
2017-10-13T01:52:21.198Z,42.50
2017-10-13T01:54:48.858Z,42.50
2017-10-13T01:57:16.409Z,42.10
2017-10-13T01:59:44.724Z,42.10
2017-10-13T02:02:12.278Z,42.10
2017-10-13T02:04:39.868Z,41.70
2017-10-13T02:07:07.411Z,41.90
2017-10-13T02:09:35.027Z,42.00
2017-10-13T02:12:03.332Z,41.60
2017-10-13T02:14:30.893Z,41.60
2017-10-13T02:16:58.420Z,41.40
2017-10-13T02:19:26.746Z,41.40
2017-10-13T02:21:54.298Z,41.40
2017-10-13T02:24:22.026Z,41.40
2017-10-13T02:26:49.565Z,41.30
2017-10-13T02:29:17.864Z,41.80
2017-10-13T02:31:46.207Z,41.20
2017-10-13T02:34:14.030Z,41.20
2017-10-13T02:36:41.562Z,41.20
2017-10-13T02:39:09.863Z,41.10
2017-10-13T02:41:37.413Z,41.20
2017-10-13T02:44:05.023Z,41.20
2017-10-13T02:46:32.548Z,41.10
2017-10-13T02:49:00.111Z,41.10
2017-10-13T02:51:27.836Z,41.10
2017-10-13T02:53:56.140Z,40.80
2017-10-13T02:56:23.735Z,40.90
2017-10-13T02:58:51.256Z,41.00
2017-10-13T03:01:18.815Z,41.00
2017-10-13T03:03:46.400Z,41.10
2017-10-13T03:06:14.166Z,40.70
2017-10-13T03:08:41.836Z,41.10
2017-10-13T03:11:09.364Z,41.00
2017-10-13T03:13:36.956Z,40.90
2017-10-13T03:16:04.498Z,41.00
2017-10-13T03:18:32.026Z,41.00
2017-10-13T03:20:59.590Z,41.00
2017-10-13T03:23:27.179Z,41.00
2017-10-13T03:25:54.732Z,41.00
2017-10-13T03:28:22.375Z,41.00
2017-10-13T03:30:49.994Z,41.00
2017-10-13T03:33:17.578Z,41.00
2017-10-13T03:35:45.879Z,41.00
2017-10-13T03:38:13.442Z,41.10
2017-10-13T03:40:41.017Z,41.10
2017-10-13T03:43:08.551Z,41.00
2017-10-13T03:45:36.151Z,40.90
2017-10-13T03:48:03.646Z,40.90
2017-10-13T03:50:31.984Z,40.90
2017-10-13T03:52:59.495Z,41.00
2017-10-13T03:55:27.032Z,41.10
2017-10-13T03:57:55.367Z,40.80
2017-10-13T04:00:22.905Z,41.20
2017-10-13T04:02:50.472Z,41.10
2017-10-13T04:05:18.006Z,41.30
2017-10-13T04:07:46.372Z,41.50
2017-10-13T04:10:14.643Z,41.20
2017-10-13T04:12:42.947Z,41.10
2017-10-13T04:15:10.486Z,41.20
2017-10-13T04:17:38.796Z,41.30
2017-10-13T04:20:06.335Z,41.10
2017-10-13T04:22:34.073Z,41.10
2017-10-13T04:25:01.595Z,41.20
2017-10-13T04:27:29.115Z,41.30
2017-10-13T04:29:56.664Z,41.60
2017-10-13T04:32:24.965Z,41.40
2017-10-13T04:34:52.555Z,41.40
2017-10-13T04:37:20.087Z,41.80
2017-10-13T04:39:47.619Z,42.10
2017-10-13T04:42:15.936Z,41.60
2017-10-13T04:44:43.462Z,41.60
2017-10-13T04:47:11.929Z,41.00
2017-10-13T04:49:40.344Z,41.60
2017-10-13T04:52:07.899Z,41.00
2017-10-13T04:54:35.492Z,40.70
2017-10-13T04:57:03.044Z,40.70
2017-10-13T04:59:30.608Z,40.70
2017-10-13T05:01:58.230Z,40.70
2017-10-13T05:04:25.807Z,40.70
2017-10-13T05:06:53.361Z,40.70
2017-10-13T05:09:20.905Z,40.70
2017-10-13T05:11:48.491Z,40.60
2017-10-13T05:14:16.127Z,40.80
2017-10-13T05:16:43.657Z,40.70
2017-10-13T05:19:11.333Z,40.80
2017-10-13T05:21:39.664Z,40.90
2017-10-13T05:24:07.197Z,40.80
2017-10-13T05:26:34.820Z,41.10
2017-10-13T05:29:03.432Z,41.10
2017-10-13T05:31:31.009Z,41.10
2017-10-13T05:33:58.529Z,41.30
2017-10-13T05:36:26.801Z,41.40
2017-10-13T05:38:55.145Z,41.40
2017-10-13T05:41:22.687Z,41.40
2017-10-13T05:43:50.259Z,41.30
2017-10-13T05:46:17.790Z,41.40
2017-10-13T05:48:45.445Z,41.40
2017-10-13T05:51:13.024Z,41.50
2017-10-13T05:53:40.627Z,41.60
2017-10-13T05:56:08.167Z,42.10
2017-10-13T05:58:35.696Z,41.90
2017-10-13T06:01:03.256Z,43.90
2017-10-13T06:03:30.808Z,44.40
2017-10-13T06:05:58.367Z,46.00
2017-10-13T06:08:25.916Z,45.00
2017-10-13T06:10:53.457Z,44.80
2017-10-13T06:13:21.726Z,46.10
2017-10-13T06:15:50.080Z,45.60
2017-10-13T06:18:17.629Z,45.60
2017-10-13T06:20:45.195Z,45.00
2017-10-13T06:23:12.734Z,44.80
2017-10-13T06:25:40.409Z,44.50
2017-10-13T06:28:08.365Z,44.50
2017-10-13T06:30:35.890Z,44.70
2017-10-13T06:33:04.192Z,44.10
2017-10-13T06:35:31.759Z,44.20
2017-10-13T06:37:59.289Z,44.20
2017-10-13T06:40:26.892Z,44.00
2017-10-13T06:42:54.425Z,43.90
2017-10-13T06:45:22.044Z,43.80
2017-10-13T06:47:50.422Z,43.90
2017-10-13T06:50:18.860Z,44.30
2017-10-13T06:52:47.355Z,43.30
2017-10-13T06:55:14.938Z,43.30
2017-10-13T06:57:42.495Z,43.20
2017-10-13T07:00:10.066Z,43.00
2017-10-13T07:02:37.580Z,42.90
2017-10-13T07:05:05.154Z,42.80
2017-10-13T07:07:32.681Z,42.70
2017-10-13T07:10:00.255Z,42.50
2017-10-13T07:12:27.809Z,42.50
2017-10-13T07:14:55.413Z,42.70
2017-10-13T07:17:22.997Z,42.10
2017-10-13T07:19:51.284Z,41.00
2017-10-13T07:22:18.952Z,41.10
2017-10-13T07:24:46.612Z,40.20
2017-10-13T07:27:14.190Z,40.60
2017-10-13T07:29:41.722Z,40.90
2017-10-13T07:32:09.300Z,41.20
2017-10-13T07:34:36.839Z,40.90
2017-10-13T07:37:04.458Z,41.00
2017-10-13T07:39:32.095Z,41.60
2017-10-13T07:41:59.627Z,41.70
2017-10-13T07:44:27.157Z,41.40
2017-10-13T07:46:55.486Z,41.30
2017-10-13T07:49:23.117Z,41.40
2017-10-13T07:51:50.681Z,41.30
2017-10-13T07:54:18.269Z,41.40
2017-10-13T07:56:45.953Z,41.10
2017-10-13T07:59:13.528Z,41.40
2017-10-13T08:01:41.141Z,41.30
2017-10-13T08:04:08.781Z,41.40
2017-10-13T08:06:36.325Z,40.80
2017-10-13T08:09:04.649Z,40.20
2017-10-13T08:11:32.160Z,40.20
2017-10-13T08:14:00.462Z,40.20
2017-10-13T08:16:28.031Z,40.20
2017-10-13T08:18:55.615Z,40.50
2017-10-13T08:21:23.242Z,40.50
2017-10-13T08:23:50.791Z,40.70
2017-10-13T08:26:18.378Z,40.20
2017-10-13T08:28:46.026Z,40.20
2017-10-13T08:31:13.550Z,40.20
2017-10-13T08:33:41.863Z,40.20
2017-10-13T08:36:09.417Z,40.20
2017-10-13T08:38:36.989Z,40.20
2017-10-13T08:41:04.551Z,40.20
2017-10-13T08:43:33.019Z,40.20
2017-10-13T08:46:00.691Z,40.20
2017-10-13T08:48:28.223Z,40.20
2017-10-13T08:50:56.608Z,40.30
2017-10-13T08:53:24.197Z,40.20
2017-10-13T08:55:51.721Z,40.30
2017-10-13T08:58:20.037Z,40.30
2017-10-13T09:00:47.615Z,40.30
2017-10-13T09:03:15.203Z,40.30
2017-10-13T09:05:43.543Z,40.30
2017-10-13T09:08:11.077Z,40.30
2017-10-13T09:10:38.655Z,40.30
2017-10-13T09:13:06.182Z,40.30
2017-10-13T09:15:33.704Z,40.30
2017-10-13T09:18:01.384Z,40.30
2017-10-13T09:20:29.693Z,40.40
2017-10-13T09:23:02.946Z,40.30
2017-10-13T09:25:31.317Z,40.30
2017-10-13T09:27:58.964Z,40.30
2017-10-13T09:30:26.524Z,41.10
2017-10-13T09:32:54.068Z,40.40
2017-10-13T09:35:21.585Z,40.40
2017-10-13T09:37:49.923Z,40.40
2017-10-13T09:40:17.584Z,40.40
2017-10-13T09:42:45.129Z,40.40
2017-10-13T09:45:13.439Z,40.40
2017-10-13T09:47:41.760Z,40.40
2017-10-13T09:50:09.282Z,40.40
2017-10-13T09:52:37.639Z,40.40
2017-10-13T09:55:05.172Z,40.40
2017-10-13T09:57:32.719Z,40.40
2017-10-13T10:00:00.305Z,40.40
2017-10-13T10:02:27.860Z,40.40
2017-10-13T10:04:55.415Z,40.40
2017-10-13T10:07:22.973Z,40.40
2017-10-13T10:09:50.513Z,40.40
2017-10-13T10:12:18.088Z,40.40
2017-10-13T10:14:45.639Z,40.40
2017-10-13T10:17:13.231Z,40.40
2017-10-13T10:19:40.761Z,40.30
2017-10-13T10:22:08.298Z,40.40
2017-10-13T10:24:35.849Z,40.40
2017-10-13T10:27:03.601Z,40.40
2017-10-13T10:29:31.919Z,40.40
2017-10-13T10:31:59.472Z,40.40
2017-10-13T10:34:27.024Z,40.40
2017-10-13T10:36:54.583Z,40.40
2017-10-13T10:39:22.123Z,40.40
2017-10-13T10:41:50.428Z,40.40
2017-10-13T10:44:17.993Z,40.50
2017-10-13T10:46:45.584Z,40.50
2017-10-13T10:49:13.142Z,40.50
2017-10-13T10:51:40.694Z,40.50
2017-10-13T10:54:08.244Z,40.50
2017-10-13T10:56:35.798Z,40.50
2017-10-13T10:59:03.371Z,40.40
2017-10-13T11:01:30.912Z,40.50
2017-10-13T11:03:58.468Z,40.50
2017-10-13T11:06:25.972Z,40.50
2017-10-13T11:08:54.291Z,41.50
2017-10-13T11:11:21.866Z,41.60
2017-10-13T11:13:49.703Z,41.10
2017-10-13T11:16:17.307Z,40.80
2017-10-13T11:18:44.850Z,41.10
2017-10-13T11:21:12.403Z,41.00
2017-10-13T11:23:39.975Z,41.00
2017-10-13T11:26:07.531Z,40.80
2017-10-13T11:28:35.075Z,41.50
2017-10-13T11:31:02.624Z,41.30
2017-10-13T11:33:30.202Z,41.00
2017-10-13T11:35:57.757Z,40.80
2017-10-13T11:38:25.321Z,40.80
2017-10-13T11:40:52.888Z,40.70
2017-10-13T11:43:20.530Z,40.70
2017-10-13T11:45:48.110Z,40.80
2017-10-13T11:48:15.652Z,40.50
2017-10-13T11:50:43.399Z,40.40
2017-10-13T11:53:10.936Z,40.50
2017-10-13T11:55:39.286Z,40.50
2017-10-13T11:58:06.811Z,40.50
2017-10-13T12:00:34.427Z,40.50
2017-10-13T12:03:02.024Z,40.50
2017-10-13T12:05:29.555Z,40.50
2017-10-13T12:07:57.889Z,40.50
2017-10-13T12:10:25.444Z,40.50
2017-10-13T12:12:52.972Z,40.50
2017-10-13T12:15:20.542Z,40.50
2017-10-13T12:17:48.090Z,40.50
2017-10-13T12:20:15.765Z,40.50
2017-10-13T12:22:43.463Z,40.50
2017-10-13T12:25:10.997Z,40.50
2017-10-13T12:27:38.575Z,40.50
2017-10-13T12:30:06.917Z,40.50
2017-10-13T12:32:34.489Z,40.60
2017-10-13T12:35:02.083Z,40.50
2017-10-13T12:37:29.659Z,40.50
2017-10-13T12:39:57.209Z,40.50
2017-10-13T12:42:24.853Z,40.50
2017-10-13T12:44:52.550Z,40.50
2017-10-13T12:47:20.980Z,40.50
2017-10-13T12:49:48.531Z,40.50
2017-10-13T12:52:16.157Z,40.50
2017-10-13T12:54:44.491Z,40.50
2017-10-13T12:57:12.022Z,40.50
2017-10-13T12:59:39.869Z,40.50
2017-10-13T13:02:08.165Z,40.50
2017-10-13T13:04:35.710Z,40.50
2017-10-13T13:07:03.311Z,40.60
2017-10-13T13:09:30.827Z,40.50
2017-10-13T13:11:58.389Z,40.60
2017-10-13T13:14:25.935Z,40.60
2017-10-13T13:16:54.424Z,40.60
2017-10-13T13:19:22.713Z,40.60
2017-10-13T13:21:50.364Z,40.60
2017-10-13T13:24:18.803Z,40.60
2017-10-13T13:26:46.533Z,40.50
2017-10-13T13:29:14.064Z,40.60
2017-10-13T13:31:42.449Z,40.60
2017-10-13T13:34:10.215Z,40.50
2017-10-13T13:36:37.755Z,40.50
2017-10-13T13:39:06.074Z,40.50
2017-10-13T13:41:33.653Z,40.50
2017-10-13T13:44:01.285Z,40.50
2017-10-13T13:46:28.828Z,40.50
2017-10-13T13:48:56.634Z,40.50
2017-10-13T13:51:24.152Z,40.50
2017-10-13T13:53:51.691Z,40.50
2017-10-13T13:56:20.027Z,40.50
2017-10-13T13:58:47.561Z,40.50
2017-10-13T14:01:15.139Z,40.50
2017-10-13T14:03:42.688Z,40.50
2017-10-13T14:06:10.218Z,40.50
2017-10-13T14:08:38.525Z,40.50
2017-10-13T14:11:06.062Z,40.40
2017-10-13T14:13:34.523Z,40.40
2017-10-13T14:16:02.937Z,40.50
2017-10-13T14:18:30.501Z,40.40
2017-10-13T14:20:58.038Z,40.40
2017-10-13T14:23:26.358Z,40.40
2017-10-13T14:25:53.883Z,40.40
2017-10-13T14:28:21.449Z,40.40
2017-10-13T14:30:49.186Z,40.40
2017-10-13T14:33:17.513Z,40.40
2017-10-13T14:35:45.102Z,40.40
2017-10-13T14:38:12.609Z,40.40
2017-10-13T14:40:40.166Z,40.40
2017-10-13T14:43:07.725Z,40.40
2017-10-13T14:45:35.406Z,40.40
2017-10-13T14:48:02.971Z,40.40
2017-10-13T14:50:30.502Z,40.40
2017-10-13T14:52:58.184Z,40.40
2017-10-13T14:55:25.844Z,40.40
2017-10-13T14:57:53.391Z,40.40
2017-10-13T15:00:20.950Z,40.40
2017-10-13T15:02:48.483Z,40.40
2017-10-13T15:05:16.829Z,40.40
2017-10-13T15:07:44.371Z,40.40
2017-10-13T15:10:11.999Z,40.40
2017-10-13T15:12:39.741Z,40.40
2017-10-13T15:15:08.104Z,40.40
2017-10-13T15:17:35.653Z,40.40
2017-10-13T15:20:03.272Z,40.40
2017-10-13T15:22:30.791Z,40.40
2017-10-13T15:25:04.818Z,40.40
2017-10-13T15:27:38.100Z,40.40
2017-10-13T15:30:22.138Z,40.40
2017-10-13T15:32:55.372Z,40.40
2017-10-13T15:35:28.610Z,40.00
2017-10-13T15:38:01.725Z,40.40
2017-10-13T15:40:35.701Z,40.40
2017-10-13T15:43:09.251Z,40.40
2017-10-13T15:45:42.358Z,40.40
2017-10-13T15:48:15.659Z,40.40
2017-10-13T15:50:48.719Z,40.40
2017-10-13T15:53:17.153Z,40.40
2017-10-13T15:55:45.504Z,40.40
2017-10-13T15:58:13.043Z,40.40
2017-10-13T16:00:40.598Z,40.40
2017-10-13T16:03:08.301Z,40.40
2017-10-13T16:05:35.831Z,40.40
2017-10-13T16:08:03.403Z,40.40
2017-10-13T16:10:30.944Z,40.40
2017-10-13T16:12:58.529Z,40.40
2017-10-13T16:15:26.101Z,40.40
2017-10-13T16:17:53.652Z,40.40
2017-10-13T16:20:21.186Z,40.40
2017-10-13T16:22:48.744Z,40.40
2017-10-13T16:25:16.322Z,40.60
2017-10-13T16:27:43.848Z,40.40
2017-10-13T16:30:12.247Z,40.80
2017-10-13T16:32:39.820Z,40.80
2017-10-13T16:35:07.397Z,40.40
2017-10-13T16:37:34.959Z,41.30
2017-10-13T16:40:02.512Z,40.70
2017-10-13T16:42:30.094Z,40.70
2017-10-13T16:44:57.651Z,40.90
2017-10-13T16:47:25.359Z,40.90
2017-10-13T16:49:52.905Z,41.10
2017-10-13T16:52:20.470Z,41.00
2017-10-13T16:54:48.047Z,41.00
2017-10-13T16:57:15.620Z,41.10
2017-10-13T16:59:43.170Z,41.10
2017-10-13T17:02:10.766Z,41.20
2017-10-13T17:04:38.319Z,41.40
2017-10-13T17:07:05.860Z,41.50
2017-10-13T17:09:33.417Z,41.40
2017-10-13T17:12:00.975Z,41.30
2017-10-13T17:14:28.627Z,41.40
2017-10-13T17:16:56.214Z,41.40
2017-10-13T17:19:23.863Z,41.30
2017-10-13T17:21:51.426Z,41.70
2017-10-13T17:24:19.891Z,41.70
2017-10-13T17:26:47.465Z,41.80
2017-10-13T17:29:15.008Z,41.80
2017-10-13T17:31:42.552Z,41.90
2017-10-13T17:34:10.121Z,41.90
2017-10-13T17:36:37.664Z,42.00
2017-10-13T17:39:05.203Z,41.90
2017-10-13T17:41:32.785Z,41.80
2017-10-13T17:44:00.320Z,41.90
2017-10-13T17:46:28.814Z,42.00
2017-10-13T17:48:57.146Z,41.80
2017-10-13T17:51:24.786Z,41.80
2017-10-13T17:53:52.363Z,41.80
2017-10-13T17:56:19.992Z,41.80
2017-10-13T17:58:47.597Z,41.70
2017-10-13T18:01:15.145Z,41.80
2017-10-13T18:03:43.824Z,42.10
2017-10-13T18:06:11.466Z,42.00
2017-10-13T18:08:39.165Z,41.50
2017-10-13T18:11:06.717Z,41.90
2017-10-13T18:13:34.472Z,41.90
2017-10-13T18:16:02.062Z,41.70
2017-10-13T18:18:29.640Z,41.60
2017-10-13T18:20:58.029Z,41.80
2017-10-13T18:23:26.398Z,41.70
2017-10-13T18:25:54.755Z,41.70
2017-10-13T18:28:22.419Z,41.70
2017-10-13T18:30:50.723Z,41.90
2017-10-13T18:33:18.346Z,41.90
2017-10-13T18:35:45.940Z,42.60
2017-10-13T18:38:14.257Z,42.50
2017-10-13T18:40:41.784Z,42.40
2017-10-13T18:43:09.772Z,42.50
2017-10-13T18:45:37.308Z,43.30
2017-10-13T18:48:05.719Z,42.80
2017-10-13T18:50:33.465Z,42.90
2017-10-13T18:53:01.082Z,43.00
2017-10-13T18:55:28.787Z,43.00
2017-10-13T18:57:56.376Z,43.10
2017-10-13T19:00:24.102Z,43.10
2017-10-13T19:02:52.401Z,43.10
2017-10-13T19:05:20.072Z,43.20
2017-10-13T19:07:47.688Z,43.20
2017-10-13T19:10:16.052Z,43.20
2017-10-13T19:12:43.680Z,43.20
2017-10-13T19:15:12.073Z,43.20
2017-10-13T19:17:40.626Z,43.30
2017-10-13T19:20:08.305Z,43.30
2017-10-13T19:22:35.895Z,43.30
2017-10-13T19:25:03.440Z,43.40
2017-10-13T19:27:31.062Z,43.40
2017-10-13T19:29:58.623Z,43.50
2017-10-13T19:32:26.211Z,43.40
2017-10-13T19:34:53.800Z,43.50
2017-10-13T19:37:21.650Z,43.40
2017-10-13T19:39:49.234Z,43.40
2017-10-13T19:42:16.787Z,43.40
2017-10-13T19:44:45.131Z,43.40
2017-10-13T19:47:12.680Z,43.30
2017-10-13T19:49:40.250Z,43.30
2017-10-13T19:52:07.871Z,43.30
2017-10-13T19:54:35.433Z,43.30
2017-10-13T19:57:02.981Z,43.40
2017-10-13T19:59:31.322Z,43.30
2017-10-13T20:01:59.825Z,43.40
2017-10-13T20:04:28.147Z,43.70
2017-10-13T20:06:55.704Z,43.40
2017-10-13T20:09:23.339Z,43.40
2017-10-13T20:11:51.684Z,43.40
2017-10-13T20:14:19.287Z,43.40
2017-10-13T20:16:46.973Z,43.40
2017-10-13T20:19:14.763Z,43.40
2017-10-13T20:21:42.286Z,43.40
2017-10-13T20:24:09.835Z,43.40
2017-10-13T20:26:37.419Z,43.40
2017-10-13T20:29:04.959Z,43.30
2017-10-13T20:31:32.556Z,43.40
2017-10-13T20:34:00.360Z,43.40
2017-10-13T20:36:28.663Z,43.40
2017-10-13T20:38:56.208Z,43.40
2017-10-13T20:41:24.537Z,43.30
2017-10-13T20:43:52.182Z,43.40
2017-10-13T20:46:19.702Z,43.50
2017-10-13T20:48:48.067Z,43.50
2017-10-13T20:51:15.635Z,43.50
2017-10-13T20:53:43.977Z,43.40
2017-10-13T20:56:11.500Z,43.40
2017-10-13T20:58:39.022Z,43.40
2017-10-13T21:01:07.376Z,43.30
2017-10-13T21:03:35.029Z,43.40
2017-10-13T21:06:02.568Z,43.40
2017-10-13T21:08:30.123Z,43.40
2017-10-13T21:10:57.675Z,43.30
2017-10-13T21:13:25.236Z,42.10
2017-10-13T21:15:52.816Z,40.70
2017-10-13T21:18:20.391Z,40.70
2017-10-13T21:20:47.939Z,40.70
2017-10-13T21:23:15.528Z,40.60
2017-10-13T21:25:43.081Z,40.60
2017-10-13T21:28:10.725Z,40.60
2017-10-13T21:30:38.278Z,40.50
2017-10-13T21:33:05.801Z,40.50
2017-10-13T21:35:33.394Z,40.30
2017-10-13T21:38:00.950Z,40.40
2017-10-13T21:40:28.488Z,40.30
2017-10-13T21:42:56.038Z,40.20
2017-10-13T21:45:24.409Z,40.20
2017-10-13T21:47:52.709Z,40.80
2017-10-13T21:50:20.341Z,40.20
2017-10-13T21:52:48.670Z,40.10
2017-10-13T21:55:16.207Z,40.10
2017-10-13T21:57:43.778Z,40.10
2017-10-13T22:00:11.312Z,40.00
2017-10-13T22:02:38.837Z,39.80
2017-10-13T22:05:07.153Z,40.40
2017-10-13T22:07:34.692Z,39.90
2017-10-13T22:10:03.181Z,39.90
2017-10-13T22:12:30.696Z,39.80
2017-10-13T22:14:58.243Z,40.50
2017-10-13T22:17:25.800Z,39.80
2017-10-13T22:19:53.331Z,39.80
2017-10-13T22:22:20.884Z,39.90
2017-10-13T22:24:48.469Z,39.80
2017-10-13T22:27:16.028Z,39.70
2017-10-13T22:29:43.617Z,39.70
2017-10-13T22:32:11.169Z,39.70
2017-10-13T22:34:38.683Z,39.70
2017-10-13T22:37:06.292Z,39.50
2017-10-13T22:39:33.820Z,39.60
2017-10-13T22:42:01.403Z,39.60
2017-10-13T22:44:29.000Z,39.50
2017-10-13T22:46:57.292Z,39.10
2017-10-13T22:49:24.948Z,39.20
2017-10-13T22:51:53.440Z,39.20
2017-10-13T22:54:21.008Z,39.30
2017-10-13T22:56:48.558Z,39.50
2017-10-13T22:59:16.092Z,39.30
2017-10-13T23:01:44.418Z,39.60
2017-10-13T23:04:12.166Z,39.60
2017-10-13T23:06:39.730Z,39.60
2017-10-13T23:09:07.289Z,39.60
2017-10-13T23:11:34.828Z,39.70
2017-10-13T23:14:02.490Z,39.70
2017-10-13T23:16:30.047Z,39.80
2017-10-13T23:18:57.604Z,39.80
2017-10-13T23:21:26.032Z,39.90
2017-10-13T23:23:53.556Z,39.90
2017-10-13T23:26:21.120Z,39.90
2017-10-13T23:28:48.656Z,39.90
2017-10-13T23:31:16.967Z,40.00
2017-10-13T23:33:44.541Z,40.00
2017-10-13T23:36:12.062Z,40.00
2017-10-13T23:38:39.712Z,40.00
2017-10-13T23:41:07.373Z,40.00
2017-10-13T23:43:35.682Z,40.00
2017-10-13T23:46:03.294Z,40.00
2017-10-13T23:48:30.888Z,40.00
2017-10-13T23:50:58.441Z,40.10
2017-10-13T23:53:26.752Z,40.10
2017-10-13T23:55:54.446Z,40.00
2017-10-13T23:58:22.024Z,40.10
